createdAt,value
2022-12-18T00:04:34.824Z,7.90
2022-12-18T00:09:39.654Z,8.23
2022-12-18T00:14:48.454Z,8.35
2022-12-18T00:19:52.568Z,8.52
2022-12-18T00:24:59.008Z,8.18
2022-12-18T00:30:01.437Z,8.43
2022-12-18T00:40:19.442Z,8.30
2022-12-18T00:45:31.542Z,9.18
2022-12-18T00:50:41.768Z,8.00
2022-12-18T00:55:44.620Z,7.95
2022-12-18T01:00:51.101Z,6.63
2022-12-18T01:05:54.213Z,8.38
2022-12-18T01:10:59.792Z,10.55
2022-12-18T01:16:17.428Z,7.40
2022-12-18T01:21:29.814Z,8.07
2022-12-18T01:26:40.778Z,8.10
2022-12-18T01:31:45.642Z,8.97
2022-12-18T01:36:53.924Z,10.07
2022-12-18T01:42:17.125Z,7.55
2022-12-18T01:53:21.882Z,8.75
2022-12-18T01:59:09.572Z,7.32
2022-12-18T02:05:32.826Z,8.63
2022-12-18T02:11:09.291Z,8.83
2022-12-18T02:16:54.474Z,9.55
2022-12-18T02:22:15.654Z,9.48
2022-12-18T02:27:21.024Z,9.65
2022-12-18T02:32:34.975Z,12.15
2022-12-18T02:37:43.712Z,9.90
2022-12-18T02:42:50.903Z,9.80
2022-12-18T02:53:58.584Z,7.53
2022-12-18T02:59:12.963Z,9.75
2022-12-18T03:05:07.373Z,9.82
2022-12-18T03:10:23.258Z,8.90
2022-12-18T03:15:45.093Z,10.32
2022-12-18T03:20:58.831Z,7.90
2022-12-18T03:26:10.695Z,9.10
2022-12-18T03:31:18.886Z,7.88
2022-12-18T03:36:27.879Z,9.18
2022-12-18T03:41:52.580Z,7.37
2022-12-18T03:47:37.796Z,7.78
2022-12-18T03:53:07.955Z,11.18
2022-12-18T03:58:19.200Z,9.00
2022-12-18T04:03:37.140Z,8.80
2022-12-18T04:08:44.612Z,8.50
2022-12-18T04:13:55.477Z,10.30
2022-12-18T04:19:02.899Z,13.25
2022-12-18T04:24:17.956Z,7.70
2022-12-18T04:29:34.727Z,7.63
2022-12-18T04:34:40.839Z,6.55
2022-12-18T04:39:45.046Z,8.05
2022-12-18T04:44:55.490Z,11.20
2022-12-18T04:49:59.895Z,7.40
2022-12-18T04:55:07.641Z,6.90
2022-12-18T05:06:59.872Z,8.60
2022-12-18T05:13:42.232Z,7.57
2022-12-18T05:18:48.157Z,8.15
2022-12-18T05:24:00.359Z,7.68
2022-12-18T05:29:06.252Z,7.75
2022-12-18T05:34:14.480Z,7.30
2022-12-18T05:39:24.446Z,7.97
2022-12-18T05:44:31.910Z,6.40
2022-12-18T05:49:37.589Z,8.85
2022-12-18T05:54:44.716Z,8.68
2022-12-18T06:36:28.253Z,8.23
2022-12-18T06:41:53.500Z,7.35
2022-12-18T06:46:58.289Z,7.20
2022-12-18T06:52:03.768Z,7.40
2022-12-18T06:57:10.970Z,6.93
2022-12-18T07:02:18.418Z,8.75
2022-12-18T07:07:23.414Z,8.57
2022-12-18T07:12:28.149Z,7.85
2022-12-18T07:17:55.216Z,20.52
2022-12-18T07:23:04.159Z,9.15
2022-12-18T07:28:12.864Z,9.93
2022-12-18T07:33:19.491Z,6.80
2022-12-18T07:38:35.128Z,8.32
2022-12-18T07:43:48.980Z,7.70
2022-12-18T07:49:00.316Z,6.28
2022-12-18T07:54:07.353Z,6.90
2022-12-18T07:59:12.254Z,6.05
2022-12-18T08:04:21.290Z,7.07
2022-12-18T08:09:27.961Z,8.00
2022-12-18T08:14:33.608Z,6.40
2022-12-18T08:19:38.488Z,8.35
2022-12-18T08:24:46.178Z,13.02
2022-12-18T08:29:54.072Z,8.52
2022-12-18T08:35:04.763Z,7.90
2022-12-18T08:40:11.019Z,5.35
2022-12-18T08:45:15.273Z,6.63
2022-12-18T08:50:19.455Z,6.45
2022-12-18T08:55:26.205Z,6.00
2022-12-18T09:00:30.439Z,6.10
2022-12-18T09:05:44.827Z,6.78
2022-12-18T09:10:53.902Z,6.95
2022-12-18T09:15:59.525Z,6.78
2022-12-18T09:21:14.821Z,5.25
2022-12-18T09:26:24.127Z,5.57
2022-12-18T09:31:30.430Z,5.30
2022-12-18T09:36:37.481Z,6.05
2022-12-18T09:41:58.244Z,8.27
2022-12-18T09:47:11.225Z,8.25
2022-12-18T09:52:35.076Z,11.07
2022-12-18T09:57:56.980Z,8.80
2022-12-18T10:03:25.044Z,7.35
2022-12-18T10:09:09.860Z,7.45
2022-12-18T10:14:45.060Z,6.25
2022-12-18T10:20:17.287Z,5.05
2022-12-18T10:25:40.232Z,6.63
2022-12-18T10:30:45.570Z,5.82
2022-12-18T10:35:59.228Z,6.40
2022-12-18T10:41:29.664Z,6.13
2022-12-18T10:46:34.309Z,5.63
2022-12-18T10:51:50.860Z,6.65
2022-12-18T10:57:17.664Z,7.03
2022-12-18T11:02:42.705Z,7.60
2022-12-18T11:07:56.914Z,5.57
2022-12-18T11:18:24.307Z,5.68
2022-12-18T11:23:33.144Z,7.30
2022-12-18T11:29:10.772Z,6.47
2022-12-18T11:34:31.661Z,7.07
2022-12-18T11:40:03.926Z,6.65
2022-12-18T11:45:36.050Z,6.47
2022-12-18T11:51:02.754Z,6.57
2022-12-18T11:56:34.706Z,8.02
2022-12-18T12:02:16.166Z,7.97
2022-12-18T12:07:39.135Z,8.10
2022-12-18T12:13:23.138Z,6.85
2022-12-18T12:18:36.322Z,6.72
2022-12-18T12:24:00.125Z,6.45
2022-12-18T12:29:21.296Z,6.75
2022-12-18T12:35:11.485Z,6.47
2022-12-18T12:40:52.069Z,9.80
2022-12-18T12:46:10.475Z,7.50
2022-12-18T12:51:31.901Z,8.18
2022-12-18T12:57:16.992Z,8.38
2022-12-18T13:02:53.341Z,8.55
2022-12-18T13:08:09.936Z,8.05
2022-12-18T13:13:23.680Z,6.80
2022-12-18T13:18:30.416Z,9.57
2022-12-18T13:23:46.057Z,6.13
2022-12-18T13:29:03.487Z,6.57
2022-12-18T13:34:26.272Z,7.53
2022-12-18T13:39:35.266Z,6.45
2022-12-18T13:44:50.149Z,7.78
2022-12-18T13:50:00.514Z,6.95
2022-12-18T13:55:13.159Z,8.02
2022-12-18T14:00:34.164Z,7.43
2022-12-18T14:05:43.436Z,7.78
2022-12-18T14:10:53.981Z,7.07
2022-12-18T14:15:59.547Z,6.75
2022-12-18T14:21:29.580Z,5.95
2022-12-18T14:26:35.208Z,6.82
2022-12-18T14:31:40.019Z,7.30
2022-12-18T14:37:00.195Z,8.27
2022-12-18T14:42:06.166Z,6.57
2022-12-18T14:47:16.919Z,6.82
2022-12-18T14:52:50.789Z,10.43
2022-12-18T14:57:56.789Z,9.38
2022-12-18T15:03:26.876Z,7.35
2022-12-18T15:08:39.654Z,10.25
2022-12-18T15:13:46.083Z,7.68
2022-12-18T15:18:52.563Z,6.18
2022-12-18T15:24:04.423Z,8.07
2022-12-18T15:29:36.275Z,10.23
2022-12-18T15:34:40.989Z,5.55
2022-12-18T15:39:50.699Z,6.93
2022-12-18T15:44:57.652Z,6.05
2022-12-18T15:50:10.351Z,10.13
2022-12-18T15:55:43.869Z,9.35
2022-12-18T16:00:48.894Z,6.38
2022-12-18T16:06:05.719Z,8.55
2022-12-18T16:11:48.835Z,5.65
2022-12-18T16:16:56.638Z,8.65
2022-12-18T16:22:08.932Z,5.80
2022-12-18T16:27:12.918Z,6.97
2022-12-18T16:32:23.502Z,8.95
2022-12-18T16:42:55.019Z,6.00
2022-12-18T16:47:59.421Z,7.53
2022-12-18T16:53:03.986Z,6.25
2022-12-18T16:58:36.196Z,5.65
2022-12-18T17:03:39.575Z,8.18
2022-12-18T17:08:55.376Z,9.05
2022-12-18T17:14:01.692Z,8.27
2022-12-18T17:19:13.723Z,10.38
2022-12-18T17:24:20.823Z,8.68
2022-12-18T17:29:27.935Z,7.95
2022-12-18T17:34:33.260Z,7.75
2022-12-18T17:39:47.308Z,7.78
2022-12-18T17:44:53.225Z,8.75
2022-12-18T17:50:05.294Z,10.63
2022-12-18T17:55:08.499Z,8.02
2022-12-18T18:00:36.368Z,11.30
2022-12-18T18:05:43.103Z,8.52
2022-12-18T18:10:50.499Z,6.60
2022-12-18T18:15:59.107Z,7.78
2022-12-18T18:21:09.433Z,7.97
2022-12-18T18:26:19.014Z,8.68
2022-12-18T18:31:41.401Z,8.05
2022-12-18T18:36:46.514Z,8.98
2022-12-18T18:41:56.530Z,9.30
2022-12-18T18:47:09.484Z,7.68
2022-12-18T18:52:14.953Z,9.25
2022-12-18T18:57:27.464Z,13.50
2022-12-18T19:02:44.269Z,9.75
2022-12-18T19:07:51.195Z,11.85
2022-12-18T19:13:17.857Z,15.48
2022-12-18T19:18:25.387Z,13.85
2022-12-18T19:23:31.099Z,12.55
2022-12-18T19:28:36.713Z,9.00
2022-12-18T19:33:43.746Z,12.30
2022-12-18T19:39:00.891Z,8.73
2022-12-18T19:44:08.648Z,11.95
2022-12-18T19:49:18.505Z,9.82
2022-12-18T19:54:21.141Z,9.65
2022-12-18T19:59:33.483Z,12.68
2022-12-18T20:04:46.732Z,14.50
2022-12-18T20:09:59.517Z,15.27
2022-12-18T20:15:09.721Z,15.55
2022-12-18T20:20:16.952Z,14.85
2022-12-18T20:25:27.584Z,12.65
2022-12-18T20:36:40.097Z,12.18
2022-12-18T20:41:51.200Z,12.00
2022-12-18T20:46:58.193Z,10.88
2022-12-18T20:57:32.607Z,11.38
2022-12-18T21:02:46.671Z,11.68
2022-12-18T21:07:56.350Z,9.13
2022-12-18T21:13:03.185Z,10.35
2022-12-18T21:18:09.861Z,16.38
2022-12-18T21:23:17.069Z,17.58
2022-12-18T21:28:20.921Z,15.32
2022-12-18T21:33:54.097Z,16.40
2022-12-18T21:39:31.519Z,35.58
2022-12-18T21:44:42.448Z,16.98
2022-12-18T21:49:47.336Z,12.38
2022-12-18T21:54:51.478Z,14.00
2022-12-18T21:59:56.030Z,11.35
2022-12-18T22:04:59.039Z,11.93
2022-12-18T22:10:07.294Z,11.70
2022-12-18T22:15:21.191Z,10.63
2022-12-18T22:20:34.448Z,15.63
2022-12-18T22:25:43.309Z,15.15
2022-12-18T22:30:50.136Z,17.13
2022-12-18T22:36:05.724Z,12.75
2022-12-18T22:41:11.573Z,13.45
2022-12-18T22:46:25.481Z,12.27
2022-12-18T22:51:34.624Z,11.73
2022-12-18T22:56:38.429Z,9.88
2022-12-18T23:01:54.192Z,11.73
2022-12-18T23:07:01.877Z,12.10
2022-12-18T23:12:14.283Z,10.68
2022-12-18T23:17:33.411Z,8.32
2022-12-18T23:22:37.302Z,10.07
2022-12-18T23:33:14.073Z,6.93
2022-12-18T23:38:26.337Z,9.52
2022-12-18T23:43:33.066Z,19.65
2022-12-18T23:48:46.622Z,12.65
2022-12-18T23:53:55.492Z,10.77
2022-12-18T23:59:03.531Z,13.98
